createdAt,value
2018-04-04T00:01:52.509Z,1.70
2018-04-04T00:04:19.206Z,1.30
2018-04-04T00:06:45.989Z,1.70
2018-04-04T00:09:12.709Z,1.70
2018-04-04T00:11:39.431Z,1.90
2018-04-04T00:14:06.148Z,2.20
2018-04-04T00:16:32.857Z,2.10
2018-04-04T00:18:59.580Z,1.90
2018-04-04T00:21:26.284Z,1.83
2018-04-04T00:23:53.006Z,1.77
2018-04-04T00:26:19.748Z,1.60
2018-04-04T00:28:46.433Z,1.80
2018-04-04T00:31:13.177Z,1.80
2018-04-04T00:33:39.890Z,1.40
2018-04-04T00:36:06.630Z,2.30
2018-04-04T00:38:33.353Z,1.93
2018-04-04T00:41:00.063Z,2.07
2018-04-04T00:43:26.783Z,1.33
2018-04-04T00:45:53.509Z,1.83
2018-04-04T00:48:20.279Z,1.67
2018-04-04T00:50:47.002Z,2.17
2018-04-04T00:53:13.748Z,1.70
2018-04-04T00:55:40.476Z,1.83
2018-04-04T00:58:07.180Z,2.13
2018-04-04T01:00:33.901Z,1.70
2018-04-04T01:03:00.635Z,2.10
2018-04-04T01:05:27.334Z,2.30
2018-04-04T01:07:54.038Z,2.10
2018-04-04T01:10:20.759Z,2.07
2018-04-04T01:12:47.470Z,2.70
2018-04-04T01:15:14.183Z,1.90
2018-04-04T01:17:40.909Z,2.70
2018-04-04T01:20:07.666Z,2.27
2018-04-04T01:22:34.395Z,1.90
2018-04-04T01:25:01.122Z,3.00
2018-04-04T01:27:27.848Z,2.90
2018-04-04T01:29:54.570Z,1.97
2018-04-04T01:32:21.287Z,2.20
2018-04-04T01:34:48.012Z,2.20
2018-04-04T01:37:14.757Z,2.43
2018-04-04T01:39:41.459Z,1.70
2018-04-04T01:42:08.161Z,2.00
2018-04-04T01:44:34.880Z,2.67
2018-04-04T01:47:01.615Z,2.50
2018-04-04T01:49:28.336Z,2.90
2018-04-04T01:51:55.092Z,2.27
2018-04-04T01:54:21.790Z,1.93
2018-04-04T01:56:48.488Z,2.10
2018-04-04T01:59:15.228Z,2.57
2018-04-04T02:01:41.988Z,1.90
2018-04-04T02:04:08.724Z,1.90
2018-04-04T02:06:35.471Z,2.10
2018-04-04T02:09:02.257Z,2.40
2018-04-04T02:11:29.042Z,1.90
2018-04-04T02:13:55.800Z,2.67
2018-04-04T02:16:22.637Z,2.10
2018-04-04T02:18:49.320Z,2.50
2018-04-04T02:21:16.056Z,2.37
2018-04-04T02:23:42.752Z,2.50
2018-04-04T02:26:09.482Z,2.33
2018-04-04T02:28:36.202Z,2.43
2018-04-04T02:31:02.928Z,2.40
2018-04-04T02:33:29.737Z,2.93
2018-04-04T02:35:56.443Z,2.17
2018-04-04T02:38:23.140Z,2.40
2018-04-04T02:40:49.862Z,2.53
2018-04-04T02:43:16.578Z,2.23
2018-04-04T02:45:43.313Z,1.83
2018-04-04T02:48:10.029Z,2.60
2018-04-04T02:50:36.743Z,2.30
2018-04-04T02:53:03.466Z,2.20
2018-04-04T02:55:30.180Z,2.67
2018-04-04T02:57:56.912Z,2.23
2018-04-04T03:00:23.600Z,2.67
2018-04-04T03:02:50.292Z,2.43
2018-04-04T03:05:17.021Z,2.43
2018-04-04T03:07:43.761Z,2.63
2018-04-04T03:10:10.477Z,2.47
2018-04-04T03:12:37.203Z,2.50
2018-04-04T03:15:03.905Z,2.57
2018-04-04T03:17:30.630Z,2.90
2018-04-04T03:19:57.322Z,2.73
2018-04-04T03:22:24.056Z,3.17
2018-04-04T03:24:50.752Z,2.83
2018-04-04T03:27:17.456Z,2.90
2018-04-04T03:29:44.187Z,3.07
2018-04-04T03:32:10.901Z,2.70
2018-04-04T03:34:37.624Z,3.03
2018-04-04T03:37:04.352Z,2.87
2018-04-04T03:39:31.046Z,3.13
2018-04-04T03:41:57.770Z,2.40
2018-04-04T03:44:24.623Z,2.87
2018-04-04T03:46:51.340Z,3.23
2018-04-04T03:49:18.045Z,2.60
2018-04-04T03:51:44.771Z,2.47
2018-04-04T03:54:11.500Z,2.90
2018-04-04T03:56:38.221Z,2.77
2018-04-04T03:59:04.943Z,2.90
2018-04-04T04:01:31.644Z,3.47
2018-04-04T04:03:58.369Z,2.70
2018-04-04T04:06:25.225Z,2.70
2018-04-04T04:08:51.939Z,2.60
2018-04-04T04:11:18.754Z,2.97
2018-04-04T04:13:45.465Z,3.47
2018-04-04T04:16:12.226Z,3.07
2018-04-04T04:18:38.928Z,3.03
2018-04-04T04:21:05.654Z,3.80
2018-04-04T04:23:32.453Z,3.47
2018-04-04T04:25:59.163Z,2.80
2018-04-04T04:28:25.875Z,2.80
2018-04-04T04:30:52.594Z,2.73
2018-04-04T04:33:19.333Z,2.80
2018-04-04T04:35:46.036Z,3.43
2018-04-04T04:38:12.758Z,3.30
2018-04-04T04:40:39.473Z,2.73
2018-04-04T04:43:06.188Z,3.23
2018-04-04T04:45:32.913Z,2.40
2018-04-04T04:47:59.661Z,3.00
2018-04-04T04:50:26.461Z,3.67
2018-04-04T04:52:53.215Z,3.20
2018-04-04T04:55:19.919Z,2.90
2018-04-04T04:57:46.657Z,3.40
2018-04-04T05:00:13.465Z,3.00
2018-04-04T05:02:40.167Z,3.20
2018-04-04T05:05:07.897Z,2.80
2018-04-04T05:07:34.712Z,2.97
2018-04-04T05:10:01.453Z,2.63
2018-04-04T05:12:28.194Z,2.50
2018-04-04T05:14:54.897Z,2.70
2018-04-04T05:17:21.628Z,3.30
2018-04-04T05:19:48.336Z,2.70
2018-04-04T05:22:15.050Z,3.00
2018-04-04T05:24:41.787Z,2.93
2018-04-04T05:27:08.560Z,2.90
2018-04-04T05:29:35.412Z,2.63
2018-04-04T05:32:02.101Z,2.47
2018-04-04T05:34:28.856Z,2.40
2018-04-04T05:36:55.618Z,2.30
2018-04-04T05:39:22.343Z,2.33
2018-04-04T05:41:49.045Z,2.87
2018-04-04T05:44:15.804Z,2.67
2018-04-04T05:46:42.527Z,3.80
2018-04-04T05:49:09.227Z,2.80
2018-04-04T05:51:35.957Z,2.37
2018-04-04T05:54:02.947Z,3.03
2018-04-04T05:56:29.715Z,2.87
2018-04-04T05:58:56.429Z,2.97
2018-04-04T06:01:23.174Z,2.93
2018-04-04T06:03:49.922Z,2.40
2018-04-04T06:06:16.631Z,2.70
2018-04-04T06:08:43.367Z,2.90
2018-04-04T06:11:10.104Z,2.40
2018-04-04T06:13:36.799Z,3.33
2018-04-04T06:16:03.524Z,3.60
2018-04-04T06:18:30.217Z,2.97
2018-04-04T06:20:57.046Z,3.10
2018-04-04T06:23:23.690Z,2.83
2018-04-04T06:25:50.382Z,3.20
2018-04-04T06:28:17.108Z,3.10
2018-04-04T06:30:43.801Z,3.00
2018-04-04T06:33:10.502Z,2.77
2018-04-04T06:35:37.223Z,2.70
2018-04-04T06:38:03.928Z,3.17
2018-04-04T06:40:30.650Z,2.47
2018-04-04T06:42:57.383Z,2.87
2018-04-04T06:45:24.110Z,3.20
2018-04-04T06:47:50.850Z,3.10
2018-04-04T06:50:17.566Z,2.70
2018-04-04T06:52:44.289Z,3.00
2018-04-04T06:55:11.002Z,2.90
2018-04-04T06:57:37.730Z,2.20
2018-04-04T07:00:04.419Z,2.70
2018-04-04T07:02:31.108Z,2.30
2018-04-04T07:04:57.830Z,2.37
2018-04-04T07:07:24.583Z,2.40
2018-04-04T07:09:51.306Z,2.37
2018-04-04T07:12:18.656Z,2.30
2018-04-04T07:14:44.826Z,2.40
2018-04-04T07:17:11.614Z,2.00
2018-04-04T07:19:38.335Z,2.60
2018-04-04T07:22:05.079Z,2.90
2018-04-04T07:24:31.818Z,2.47
2018-04-04T07:26:58.524Z,2.30
2018-04-04T07:29:25.365Z,2.70
2018-04-04T07:31:52.155Z,2.40
2018-04-04T07:34:18.977Z,2.60
2018-04-04T07:36:45.890Z,2.23
2018-04-04T07:39:12.591Z,2.70
2018-04-04T07:41:39.334Z,2.90
2018-04-04T07:44:06.080Z,3.13
2018-04-04T07:46:33.078Z,2.80
2018-04-04T07:48:59.826Z,4.43
2018-04-04T07:51:26.538Z,2.73
2018-04-04T07:53:53.265Z,3.33
2018-04-04T07:56:20.011Z,3.33
2018-04-04T07:58:46.741Z,3.30
2018-04-04T08:01:13.493Z,3.57
2018-04-04T08:03:40.223Z,3.00
2018-04-04T08:06:06.939Z,2.80
2018-04-04T08:08:33.686Z,2.50
2018-04-04T08:11:00.512Z,2.53
2018-04-04T08:13:27.220Z,2.43
2018-04-04T08:15:53.968Z,2.93
2018-04-04T08:18:20.924Z,2.63
2018-04-04T08:20:47.635Z,2.03
2018-04-04T08:23:14.354Z,2.83
2018-04-04T08:25:41.102Z,2.67
2018-04-04T08:28:07.869Z,2.10
2018-04-04T08:30:34.574Z,2.60
2018-04-04T08:33:01.284Z,2.30
2018-04-04T08:35:27.999Z,2.03
2018-04-04T08:37:54.707Z,2.30
2018-04-04T08:40:21.479Z,2.20
2018-04-04T08:42:48.180Z,2.50
2018-04-04T08:45:14.888Z,2.70
2018-04-04T08:47:41.695Z,2.77
2018-04-04T08:50:08.409Z,2.60
2018-04-04T08:52:35.183Z,2.33
2018-04-04T08:55:01.920Z,2.87
2018-04-04T08:57:28.634Z,3.23
2018-04-04T08:59:55.374Z,2.17
2018-04-04T09:02:22.291Z,2.00
2018-04-04T09:04:49.025Z,2.20
2018-04-04T09:07:15.725Z,2.00
2018-04-04T09:09:42.439Z,1.60
2018-04-04T09:12:09.174Z,2.20
2018-04-04T09:14:35.939Z,1.73
2018-04-04T09:17:02.760Z,2.40
2018-04-04T09:19:29.562Z,1.90
2018-04-04T09:21:56.267Z,2.13
2018-04-04T09:24:23.011Z,1.87
2018-04-04T09:26:49.771Z,1.67
2018-04-04T09:29:16.493Z,1.57
2018-04-04T09:31:43.221Z,1.67
2018-04-04T09:34:09.945Z,1.93
2018-04-04T09:36:36.678Z,2.30
2018-04-04T09:39:03.435Z,1.33
2018-04-04T09:41:30.162Z,1.47
2018-04-04T09:43:56.874Z,1.67
2018-04-04T09:46:23.604Z,1.90
2018-04-04T09:48:50.345Z,1.60
2018-04-04T09:51:17.062Z,1.70
2018-04-04T09:53:43.813Z,1.10
2018-04-04T09:56:22.038Z,1.20
2018-04-04T09:58:51.726Z,1.30
2018-04-04T10:01:36.929Z,1.10
2018-04-04T10:04:10.069Z,1.10
2018-04-04T10:06:39.140Z,1.00
2018-04-04T10:09:19.265Z,1.30
2018-04-04T10:11:47.670Z,1.13
2018-04-04T10:14:17.051Z,0.80
2018-04-04T10:16:45.375Z,0.93
2018-04-04T10:19:16.979Z,1.10
2018-04-04T10:21:49.409Z,1.10
2018-04-04T10:24:21.521Z,1.33
2018-04-04T10:26:53.271Z,0.97
2018-04-04T10:29:20.783Z,0.87
2018-04-04T10:31:49.920Z,1.70
2018-04-04T10:34:22.420Z,1.00
2018-04-04T10:36:51.422Z,1.00
2018-04-04T10:39:23.304Z,1.10
2018-04-04T10:41:56.016Z,1.73
2018-04-04T10:44:22.813Z,0.63
2018-04-04T10:46:49.559Z,1.10
2018-04-04T10:49:16.261Z,1.37
2018-04-04T10:51:42.982Z,1.10
2018-04-04T10:54:09.723Z,1.50
2018-04-04T10:56:36.440Z,1.10
2018-04-04T10:59:03.180Z,1.33
2018-04-04T11:01:29.918Z,1.20
2018-04-04T11:03:56.667Z,1.17
2018-04-04T11:06:23.397Z,1.50
2018-04-04T11:08:50.136Z,1.60
2018-04-04T11:11:16.867Z,1.00
2018-04-04T11:13:43.616Z,1.20
2018-04-04T11:16:10.363Z,1.10
2018-04-04T11:18:37.079Z,1.07
2018-04-04T11:21:03.818Z,1.13
2018-04-04T11:23:30.541Z,1.27
2018-04-04T11:25:57.277Z,1.07
2018-04-04T11:28:23.981Z,0.90
2018-04-04T11:30:50.698Z,1.20
2018-04-04T11:33:17.431Z,1.10
2018-04-04T11:35:44.182Z,1.07
2018-04-04T11:38:11.617Z,1.10
2018-04-04T11:40:38.616Z,1.10
2018-04-04T11:43:05.323Z,1.00
2018-04-04T11:45:32.042Z,0.90
2018-04-04T11:47:58.798Z,1.83
2018-04-04T11:50:25.535Z,1.07
2018-04-04T11:52:52.237Z,1.03
2018-04-04T11:55:18.967Z,0.93
2018-04-04T11:57:45.678Z,0.97
2018-04-04T12:00:12.411Z,0.80
2018-04-04T12:02:39.220Z,1.23
2018-04-04T12:05:05.929Z,1.47
2018-04-04T12:07:32.663Z,1.00
2018-04-04T12:09:59.401Z,1.23
2018-04-04T12:12:26.123Z,1.70
2018-04-04T12:14:52.819Z,1.57
2018-04-04T12:17:19.558Z,1.33
2018-04-04T12:19:46.307Z,1.53
2018-04-04T12:22:13.024Z,1.40
2018-04-04T12:24:39.759Z,1.20
2018-04-04T12:27:06.456Z,1.23
2018-04-04T12:29:33.202Z,1.10
2018-04-04T12:31:59.931Z,1.20
2018-04-04T12:34:26.695Z,1.63
2018-04-04T12:36:53.413Z,1.30
2018-04-04T12:39:20.204Z,1.27
2018-04-04T12:41:46.916Z,1.90
2018-04-04T12:44:13.637Z,1.03
2018-04-04T12:46:40.386Z,1.03
2018-04-04T12:49:07.100Z,1.20
2018-04-04T12:51:33.819Z,1.10
2018-04-04T12:54:00.537Z,1.50
2018-04-04T12:56:27.266Z,1.23
2018-04-04T12:58:53.987Z,1.40
2018-04-04T13:01:20.739Z,1.33
2018-04-04T13:03:47.463Z,1.70
2018-04-04T13:06:14.157Z,1.60
2018-04-04T13:08:40.872Z,1.33
2018-04-04T13:11:07.606Z,1.50
2018-04-04T13:13:34.329Z,1.17
2018-04-04T13:16:01.060Z,1.50
2018-04-04T13:18:27.789Z,0.97
2018-04-04T13:20:54.509Z,1.13
2018-04-04T13:23:21.219Z,1.20
2018-04-04T13:25:47.955Z,1.00
2018-04-04T13:28:14.696Z,1.20
2018-04-04T13:30:41.394Z,1.17
2018-04-04T13:33:08.117Z,1.20
2018-04-04T13:35:34.849Z,0.90
2018-04-04T13:38:01.561Z,0.97
2018-04-04T13:40:28.374Z,0.90
2018-04-04T13:42:55.090Z,0.93
2018-04-04T13:45:21.806Z,1.07
2018-04-04T13:47:48.536Z,0.80
2018-04-04T13:50:15.259Z,1.07
2018-04-04T13:52:41.982Z,1.00
2018-04-04T13:55:08.680Z,1.00
2018-04-04T13:57:35.398Z,0.60
2018-04-04T14:00:02.131Z,0.80
2018-04-04T14:02:28.967Z,0.93
2018-04-04T14:04:55.702Z,0.70
2018-04-04T14:07:22.398Z,0.60
2018-04-04T14:09:49.127Z,0.80
2018-04-04T14:12:15.842Z,0.90
2018-04-04T14:14:42.569Z,0.67
2018-04-04T14:17:09.303Z,0.80
2018-04-04T14:19:36.046Z,1.10
2018-04-04T14:22:02.771Z,0.90
2018-04-04T14:24:29.491Z,1.00
2018-04-04T14:26:56.208Z,0.70
2018-04-04T14:29:22.914Z,0.70
2018-04-04T14:31:49.629Z,0.63
2018-04-04T14:34:16.357Z,0.87
2018-04-04T14:36:43.102Z,0.80
2018-04-04T14:39:09.837Z,0.70
2018-04-04T14:41:36.561Z,0.77
2018-04-04T14:44:03.287Z,0.60
2018-04-04T14:46:29.990Z,0.80
2018-04-04T14:48:56.728Z,0.93
2018-04-04T14:51:23.446Z,0.70
2018-04-04T14:53:50.144Z,0.80
2018-04-04T14:56:16.895Z,0.83
2018-04-04T14:58:43.646Z,1.00
2018-04-04T15:01:10.348Z,0.90
2018-04-04T15:03:37.077Z,0.70
2018-04-04T15:06:03.813Z,1.30
2018-04-04T15:08:30.557Z,0.80
2018-04-04T15:10:57.254Z,0.87
2018-04-04T15:13:23.966Z,1.10
2018-04-04T15:15:50.733Z,0.80
2018-04-04T15:18:17.482Z,1.00
2018-04-04T15:20:44.221Z,1.07
2018-04-04T15:23:10.988Z,1.10
2018-04-04T15:25:37.718Z,0.80
2018-04-04T15:28:04.443Z,1.13
2018-04-04T15:30:31.175Z,0.77
2018-04-04T15:32:57.901Z,0.90
2018-04-04T15:35:24.652Z,1.10
2018-04-04T15:37:51.377Z,1.07
2018-04-04T15:40:18.116Z,0.70
2018-04-04T15:42:44.832Z,1.20
2018-04-04T15:45:11.591Z,0.90
2018-04-04T15:47:38.311Z,0.70
2018-04-04T15:50:05.094Z,1.03
2018-04-04T15:52:31.860Z,1.17
2018-04-04T15:54:58.596Z,0.93
2018-04-04T15:57:25.329Z,0.80
2018-04-04T15:59:52.069Z,1.03
2018-04-04T16:02:23.597Z,1.10
2018-04-04T16:04:50.849Z,1.10
2018-04-04T16:07:17.590Z,1.20
2018-04-04T16:09:44.287Z,1.07
2018-04-04T16:12:11.014Z,1.33
2018-04-04T16:14:37.748Z,1.17
2018-04-04T16:17:04.537Z,1.30
2018-04-04T16:19:31.628Z,1.13
2018-04-04T16:21:58.454Z,1.30
2018-04-04T16:24:25.203Z,1.00
2018-04-04T16:26:51.946Z,1.13
2018-04-04T16:29:18.679Z,1.00
2018-04-04T16:31:45.415Z,1.10
2018-04-04T16:34:12.226Z,0.87
2018-04-04T16:36:38.966Z,1.10
2018-04-04T16:39:05.848Z,0.83
2018-04-04T16:41:32.755Z,1.40
2018-04-04T16:43:59.612Z,1.07
2018-04-04T16:46:26.401Z,1.10
2018-04-04T16:48:53.507Z,0.90
2018-04-04T16:51:20.283Z,1.27
2018-04-04T16:53:47.090Z,1.03
2018-04-04T16:56:13.893Z,0.87
2018-04-04T16:58:40.643Z,1.00
2018-04-04T17:01:07.517Z,0.90
2018-04-04T17:03:34.250Z,1.00
2018-04-04T17:06:00.990Z,1.10
2018-04-04T17:08:27.739Z,1.00
2018-04-04T17:10:54.472Z,1.23
2018-04-04T17:13:21.208Z,1.03
2018-04-04T17:15:48.001Z,0.77
2018-04-04T17:18:14.687Z,1.00
2018-04-04T17:20:41.459Z,0.70
2018-04-04T17:23:08.210Z,0.87
2018-04-04T17:25:34.958Z,0.63
2018-04-04T17:28:01.681Z,0.70
2018-04-04T17:30:28.422Z,0.90
2018-04-04T17:32:55.232Z,0.70
2018-04-04T17:35:21.957Z,0.83
2018-04-04T17:37:48.819Z,1.10
2018-04-04T17:40:15.577Z,1.13
2018-04-04T17:42:42.354Z,0.77
2018-04-04T17:45:09.094Z,0.60
2018-04-04T17:47:35.880Z,1.00
2018-04-04T17:50:02.615Z,0.80
2018-04-04T17:52:29.476Z,1.20
2018-04-04T17:54:56.215Z,0.90
2018-04-04T17:57:22.956Z,1.50
2018-04-04T17:59:49.797Z,1.53
2018-04-04T18:02:16.541Z,0.90
2018-04-04T18:04:43.254Z,0.87
2018-04-04T18:07:10.004Z,0.80
2018-04-04T18:09:36.764Z,1.40
2018-04-04T18:12:03.452Z,1.40
2018-04-04T18:14:30.360Z,1.00
2018-04-04T18:16:57.090Z,0.80
2018-04-04T18:19:23.835Z,0.80
2018-04-04T18:21:50.548Z,1.20
2018-04-04T18:24:17.291Z,1.10
2018-04-04T18:26:44.019Z,0.80
2018-04-04T18:29:10.768Z,0.70
2018-04-04T18:31:37.651Z,1.10
2018-04-04T18:34:04.454Z,1.10
2018-04-04T18:36:31.239Z,0.80
2018-04-04T18:38:57.998Z,0.90
2018-04-04T18:41:24.730Z,0.80
2018-04-04T18:43:51.453Z,0.90
2018-04-04T18:46:18.237Z,0.80
2018-04-04T18:48:44.998Z,1.00
2018-04-04T18:51:11.723Z,0.77
2018-04-04T18:53:38.579Z,0.77
2018-04-04T18:56:05.368Z,0.70
2018-04-04T18:58:32.080Z,0.73
2018-04-04T19:00:58.825Z,0.80
2018-04-04T19:03:25.569Z,0.97
2018-04-04T19:05:52.273Z,0.70
2018-04-04T19:08:19.085Z,1.10
2018-04-04T19:10:45.801Z,0.80
2018-04-04T19:13:12.535Z,0.93
2018-04-04T19:15:39.280Z,1.10
2018-04-04T19:18:06.023Z,0.90
2018-04-04T19:20:32.752Z,0.97
2018-04-04T19:22:59.559Z,0.77
2018-04-04T19:25:26.329Z,1.00
2018-04-04T19:27:53.043Z,1.10
2018-04-04T19:30:19.773Z,1.20
2018-04-04T19:32:46.506Z,1.00
2018-04-04T19:35:13.217Z,1.33
2018-04-04T19:37:39.954Z,1.03
2018-04-04T19:40:06.677Z,0.93
2018-04-04T19:42:33.426Z,1.00
2018-04-04T19:45:06.210Z,0.80
2018-04-04T19:47:33.431Z,1.13
2018-04-04T19:50:00.173Z,1.10
2018-04-04T19:52:26.912Z,1.10
2018-04-04T19:54:53.708Z,1.13
2018-04-04T19:57:20.428Z,1.10
2018-04-04T19:59:47.176Z,0.90
2018-04-04T20:02:14.102Z,1.07
2018-04-04T20:04:40.854Z,0.70
2018-04-04T20:07:07.569Z,0.80
2018-04-04T20:09:34.304Z,0.90
2018-04-04T20:12:01.020Z,0.93
2018-04-04T20:14:27.886Z,1.10
2018-04-04T20:16:54.619Z,1.60
2018-04-04T20:19:21.342Z,1.03
2018-04-04T20:21:48.103Z,0.87
2018-04-04T20:24:14.838Z,1.13
2018-04-04T20:26:41.568Z,1.00
2018-04-04T20:29:08.324Z,1.30
2018-04-04T20:31:35.050Z,1.20
2018-04-04T20:34:01.779Z,0.80
2018-04-04T20:36:28.504Z,0.80
2018-04-04T20:38:55.318Z,1.00
2018-04-04T20:41:22.093Z,1.40
2018-04-04T20:43:48.830Z,1.00
2018-04-04T20:46:15.579Z,1.00
2018-04-04T20:48:42.346Z,0.90
2018-04-04T20:51:09.096Z,1.00
2018-04-04T20:53:35.830Z,1.07
2018-04-04T20:56:02.545Z,1.00
2018-04-04T20:58:29.289Z,1.00
2018-04-04T21:00:56.008Z,0.90
2018-04-04T21:03:22.718Z,1.30
2018-04-04T21:05:49.444Z,1.17
2018-04-04T21:08:16.156Z,1.10
2018-04-04T21:10:42.886Z,1.00
2018-04-04T21:13:09.599Z,1.03
2018-04-04T21:15:36.329Z,1.20
2018-04-04T21:18:03.036Z,1.17
2018-04-04T21:20:29.742Z,1.13
2018-04-04T21:22:56.472Z,1.00
2018-04-04T21:25:23.190Z,1.40
2018-04-04T21:27:49.930Z,1.40
2018-04-04T21:30:16.676Z,1.27
2018-04-04T21:32:43.387Z,1.20
2018-04-04T21:35:10.110Z,1.30
2018-04-04T21:37:36.815Z,1.27
2018-04-04T21:40:03.582Z,1.10
2018-04-04T21:42:30.403Z,1.27
2018-04-04T21:44:57.096Z,0.93
2018-04-04T21:47:23.831Z,1.40
2018-04-04T21:49:50.548Z,1.20
2018-04-04T21:52:17.287Z,1.47
2018-04-04T21:54:43.980Z,1.30
2018-04-04T21:57:10.695Z,1.40
2018-04-04T21:59:37.414Z,1.07
2018-04-04T22:02:04.151Z,1.50
2018-04-04T22:04:30.875Z,1.37
2018-04-04T22:06:57.595Z,1.20
2018-04-04T22:09:24.301Z,1.07
2018-04-04T22:11:51.067Z,1.10
2018-04-04T22:14:17.770Z,1.50
2018-04-04T22:16:44.479Z,1.20
2018-04-04T22:19:11.236Z,1.20
2018-04-04T22:21:38.158Z,1.33
2018-04-04T22:24:04.904Z,1.77
2018-04-04T22:26:31.629Z,1.00
2018-04-04T22:28:58.341Z,1.20
2018-04-04T22:31:25.075Z,1.33
2018-04-04T22:33:51.773Z,1.50
2018-04-04T22:36:18.576Z,1.10
2018-04-04T22:38:45.282Z,1.50
2018-04-04T22:41:11.979Z,1.00
2018-04-04T22:43:38.701Z,1.17
2018-04-04T22:46:05.419Z,1.10
2018-04-04T22:48:32.203Z,1.20
2018-04-04T22:50:58.916Z,1.00
2018-04-04T22:53:25.627Z,1.17
2018-04-04T22:55:52.361Z,1.10
2018-04-04T22:58:19.066Z,1.00
2018-04-04T23:00:45.777Z,0.97
2018-04-04T23:03:12.495Z,1.10
2018-04-04T23:05:39.201Z,1.03
2018-04-04T23:08:05.943Z,1.03
2018-04-04T23:10:32.660Z,1.23
2018-04-04T23:12:59.384Z,1.43
2018-04-04T23:15:26.122Z,1.00
2018-04-04T23:17:52.824Z,0.77
2018-04-04T23:20:19.558Z,1.30
2018-04-04T23:22:46.407Z,1.10
2018-04-04T23:25:13.137Z,1.00
2018-04-04T23:27:39.854Z,1.30
2018-04-04T23:30:06.579Z,0.90
2018-04-04T23:32:33.313Z,1.50
2018-04-04T23:35:00.009Z,0.90
2018-04-04T23:37:26.732Z,1.17
2018-04-04T23:39:53.440Z,1.00
2018-04-04T23:42:20.166Z,1.27
2018-04-04T23:44:46.900Z,1.23
2018-04-04T23:47:13.613Z,1.00
2018-04-04T23:49:40.349Z,1.20
2018-04-04T23:52:07.070Z,1.20
2018-04-04T23:54:33.788Z,1.30
2018-04-04T23:57:00.491Z,1.13
2018-04-04T23:59:27.236Z,1.20
